sensor_id;sensor_type;location;lat;lon;timestamp;P1;durP1;ratioP1;P2;durP2;ratioP2
71963;SDS011;59834;52.124;5.422;2023-10-08T00:01:43;13.98;;;4.63;;
71963;SDS011;59834;52.124;5.422;2023-10-08T00:04:10;14.48;;;2.90;;
71963;SDS011;59834;52.124;5.422;2023-10-08T00:06:37;11.93;;;2.40;;
71963;SDS011;59834;52.124;5.422;2023-10-08T00:09:04;10.35;;;2.97;;
71963;SDS011;59834;52.124;5.422;2023-10-08T00:11:35;15.97;;;2.83;;
71963;SDS011;59834;52.124;5.422;2023-10-08T00:14:06;8.98;;;2.70;;
71963;SDS011;59834;52.124;5.422;2023-10-08T00:16:37;12.05;;;2.30;;
71963;SDS011;59834;52.124;5.422;2023-10-08T00:19:06;11.00;;;2.55;;
71963;SDS011;59834;52.124;5.422;2023-10-08T00:21:41;14.07;;;3.03;;
71963;SDS011;59834;52.124;5.422;2023-10-08T00:24:10;19.43;;;3.43;;
71963;SDS011;59834;52.124;5.422;2023-10-08T00:26:40;12.23;;;2.53;;
71963;SDS011;59834;52.124;5.422;2023-10-08T00:29:08;11.10;;;2.40;;
71963;SDS011;59834;52.124;5.422;2023-10-08T00:31:48;15.27;;;3.53;;
71963;SDS011;59834;52.124;5.422;2023-10-08T00:34:18;13.63;;;3.40;;
71963;SDS011;59834;52.124;5.422;2023-10-08T00:36:47;10.17;;;2.80;;
71963;SDS011;59834;52.124;5.422;2023-10-08T00:39:17;13.95;;;2.80;;
71963;SDS011;59834;52.124;5.422;2023-10-08T00:41:51;13.82;;;2.45;;
71963;SDS011;59834;52.124;5.422;2023-10-08T00:44:25;12.07;;;3.83;;
71963;SDS011;59834;52.124;5.422;2023-10-08T00:47:02;14.70;;;3.72;;
71963;SDS011;59834;52.124;5.422;2023-10-08T00:49:31;18.20;;;2.53;;
71963;SDS011;59834;52.124;5.422;2023-10-08T00:52:14;14.43;;;4.03;;
71963;SDS011;59834;52.124;5.422;2023-10-08T00:54:42;18.20;;;4.25;;
71963;SDS011;59834;52.124;5.422;2023-10-08T00:57:36;16.25;;;2.70;;
71963;SDS011;59834;52.124;5.422;2023-10-08T01:00:04;15.30;;;3.33;;
71963;SDS011;59834;52.124;5.422;2023-10-08T01:02:58;10.93;;;2.80;;
71963;SDS011;59834;52.124;5.422;2023-10-08T01:05:28;13.18;;;2.55;;
71963;SDS011;59834;52.124;5.422;2023-10-08T01:08:09;14.23;;;2.80;;
71963;SDS011;59834;52.124;5.422;2023-10-08T01:10:39;15.23;;;4.10;;
71963;SDS011;59834;52.124;5.422;2023-10-08T01:13:10;11.32;;;2.88;;
71963;SDS011;59834;52.124;5.422;2023-10-08T01:15:43;20.80;;;2.57;;
71963;SDS011;59834;52.124;5.422;2023-10-08T01:18:11;11.45;;;2.05;;
71963;SDS011;59834;52.124;5.422;2023-10-08T01:20:41;15.57;;;2.78;;
71963;SDS011;59834;52.124;5.422;2023-10-08T01:23:18;13.18;;;3.20;;
71963;SDS011;59834;52.124;5.422;2023-10-08T01:25:55;16.73;;;3.00;;
71963;SDS011;59834;52.124;5.422;2023-10-08T01:28:37;16.50;;;3.37;;
71963;SDS011;59834;52.124;5.422;2023-10-08T01:31:04;15.55;;;3.03;;
71963;SDS011;59834;52.124;5.422;2023-10-08T01:33:31;13.38;;;3.40;;
71963;SDS011;59834;52.124;5.422;2023-10-08T01:36:03;13.32;;;2.65;;
71963;SDS011;59834;52.124;5.422;2023-10-08T01:38:31;15.65;;;3.45;;
71963;SDS011;59834;52.124;5.422;2023-10-08T01:41:02;13.23;;;2.53;;
71963;SDS011;59834;52.124;5.422;2023-10-08T01:43:48;13.75;;;2.35;;
71963;SDS011;59834;52.124;5.422;2023-10-08T01:46:16;16.45;;;2.72;;
71963;SDS011;59834;52.124;5.422;2023-10-08T01:48:43;24.48;;;3.33;;
71963;SDS011;59834;52.124;5.422;2023-10-08T01:51:11;15.07;;;3.70;;
71963;SDS011;59834;52.124;5.422;2023-10-08T01:53:45;9.37;;;2.83;;
71963;SDS011;59834;52.124;5.422;2023-10-08T01:56:13;14.23;;;2.55;;
71963;SDS011;59834;52.124;5.422;2023-10-08T01:58:40;19.33;;;3.58;;
71963;SDS011;59834;52.124;5.422;2023-10-08T02:01:06;12.95;;;2.88;;
71963;SDS011;59834;52.124;5.422;2023-10-08T02:03:38;13.18;;;3.15;;
71963;SDS011;59834;52.124;5.422;2023-10-08T02:06:05;12.03;;;2.93;;
71963;SDS011;59834;52.124;5.422;2023-10-08T02:08:34;9.20;;;2.47;;
71963;SDS011;59834;52.124;5.422;2023-10-08T02:11:02;13.38;;;2.67;;
71963;SDS011;59834;52.124;5.422;2023-10-08T02:13:29;6.15;;;2.30;;
71963;SDS011;59834;52.124;5.422;2023-10-08T02:15:56;11.77;;;3.58;;
71963;SDS011;59834;52.124;5.422;2023-10-08T02:18:24;10.97;;;2.53;;
71963;SDS011;59834;52.124;5.422;2023-10-08T02:20:52;10.18;;;2.50;;
71963;SDS011;59834;52.124;5.422;2023-10-08T02:23:19;11.93;;;2.90;;
71963;SDS011;59834;52.124;5.422;2023-10-08T02:25:46;13.00;;;2.92;;
71963;SDS011;59834;52.124;5.422;2023-10-08T02:28:14;10.15;;;2.78;;
71963;SDS011;59834;52.124;5.422;2023-10-08T02:30:46;13.70;;;3.10;;
71963;SDS011;59834;52.124;5.422;2023-10-08T02:33:13;16.95;;;2.60;;
71963;SDS011;59834;52.124;5.422;2023-10-08T02:35:44;11.60;;;2.83;;
71963;SDS011;59834;52.124;5.422;2023-10-08T02:38:13;11.68;;;3.35;;
71963;SDS011;59834;52.124;5.422;2023-10-08T02:40:44;14.57;;;3.33;;
71963;SDS011;59834;52.124;5.422;2023-10-08T02:43:14;8.87;;;2.33;;
71963;SDS011;59834;52.124;5.422;2023-10-08T02:45:42;16.23;;;3.03;;
71963;SDS011;59834;52.124;5.422;2023-10-08T02:48:14;10.25;;;2.38;;
71963;SDS011;59834;52.124;5.422;2023-10-08T02:50:42;13.15;;;3.35;;
71963;SDS011;59834;52.124;5.422;2023-10-08T02:53:12;14.30;;;3.65;;
71963;SDS011;59834;52.124;5.422;2023-10-08T02:55:44;9.87;;;3.20;;
71963;SDS011;59834;52.124;5.422;2023-10-08T02:58:13;14.77;;;2.80;;
71963;SDS011;59834;52.124;5.422;2023-10-08T03:00:42;19.15;;;3.63;;
71963;SDS011;59834;52.124;5.422;2023-10-08T03:03:09;12.48;;;2.72;;
71963;SDS011;59834;52.124;5.422;2023-10-08T03:05:44;12.35;;;2.70;;
71963;SDS011;59834;52.124;5.422;2023-10-08T03:08:16;14.80;;;2.93;;
71963;SDS011;59834;52.124;5.422;2023-10-08T03:10:48;16.92;;;2.60;;
71963;SDS011;59834;52.124;5.422;2023-10-08T03:13:23;12.60;;;3.75;;
71963;SDS011;59834;52.124;5.422;2023-10-08T03:15:49;14.02;;;3.50;;
71963;SDS011;59834;52.124;5.422;2023-10-08T03:18:29;12.65;;;3.28;;
71963;SDS011;59834;52.124;5.422;2023-10-08T03:21:03;16.57;;;3.07;;
71963;SDS011;59834;52.124;5.422;2023-10-08T03:23:31;14.85;;;3.10;;
71963;SDS011;59834;52.124;5.422;2023-10-08T03:26:03;11.52;;;3.08;;
71963;SDS011;59834;52.124;5.422;2023-10-08T03:28:38;14.73;;;3.15;;
71963;SDS011;59834;52.124;5.422;2023-10-08T03:31:08;13.35;;;3.47;;
71963;SDS011;59834;52.124;5.422;2023-10-08T03:33:43;11.43;;;2.93;;
71963;SDS011;59834;52.124;5.422;2023-10-08T03:36:16;10.73;;;2.58;;
71963;SDS011;59834;52.124;5.422;2023-10-08T03:39:00;9.50;;;2.40;;
71963;SDS011;59834;52.124;5.422;2023-10-08T03:41:38;9.65;;;3.10;;
71963;SDS011;59834;52.124;5.422;2023-10-08T03:44:09;12.98;;;3.38;;
71963;SDS011;59834;52.124;5.422;2023-10-08T03:46:39;16.80;;;2.90;;
71963;SDS011;59834;52.124;5.422;2023-10-08T03:49:09;13.98;;;3.10;;
71963;SDS011;59834;52.124;5.422;2023-10-08T03:51:48;15.27;;;3.15;;
71963;SDS011;59834;52.124;5.422;2023-10-08T03:54:20;16.13;;;3.20;;
71963;SDS011;59834;52.124;5.422;2023-10-08T03:57:00;12.88;;;3.45;;
71963;SDS011;59834;52.124;5.422;2023-10-08T03:59:27;10.93;;;3.63;;
71963;SDS011;59834;52.124;5.422;2023-10-08T04:01:58;13.10;;;4.28;;
71963;SDS011;59834;52.124;5.422;2023-10-08T04:04:36;13.00;;;3.00;;
71963;SDS011;59834;52.124;5.422;2023-10-08T04:07:20;16.63;;;3.80;;
71963;SDS011;59834;52.124;5.422;2023-10-08T04:09:51;21.73;;;4.47;;
71963;SDS011;59834;52.124;5.422;2023-10-08T04:12:44;21.97;;;4.83;;
71963;SDS011;59834;52.124;5.422;2023-10-08T04:15:12;17.25;;;4.03;;
71963;SDS011;59834;52.124;5.422;2023-10-08T04:17:44;18.17;;;3.75;;
71963;SDS011;59834;52.124;5.422;2023-10-08T04:20:13;23.25;;;3.30;;
71963;SDS011;59834;52.124;5.422;2023-10-08T04:23:00;18.00;;;2.63;;
71963;SDS011;59834;52.124;5.422;2023-10-08T04:25:29;12.73;;;2.60;;
71963;SDS011;59834;52.124;5.422;2023-10-08T04:27:57;22.63;;;2.88;;
71963;SDS011;59834;52.124;5.422;2023-10-08T04:30:32;11.20;;;2.72;;
71963;SDS011;59834;52.124;5.422;2023-10-08T04:32:59;18.10;;;2.85;;
71963;SDS011;59834;52.124;5.422;2023-10-08T04:35:34;17.00;;;3.45;;
71963;SDS011;59834;52.124;5.422;2023-10-08T04:38:06;13.80;;;2.67;;
71963;SDS011;59834;52.124;5.422;2023-10-08T04:40:35;19.63;;;3.92;;
71963;SDS011;59834;52.124;5.422;2023-10-08T04:43:23;15.73;;;1.92;;
71963;SDS011;59834;52.124;5.422;2023-10-08T04:45:57;11.52;;;1.88;;
71963;SDS011;59834;52.124;5.422;2023-10-08T04:48:25;14.20;;;3.42;;
71963;SDS011;59834;52.124;5.422;2023-10-08T04:50:58;21.17;;;2.60;;
71963;SDS011;59834;52.124;5.422;2023-10-08T04:53:29;7.80;;;1.80;;
71963;SDS011;59834;52.124;5.422;2023-10-08T04:56:04;9.98;;;1.77;;
71963;SDS011;59834;52.124;5.422;2023-10-08T04:58:33;11.88;;;3.15;;
71963;SDS011;59834;52.124;5.422;2023-10-08T05:01:03;8.20;;;1.95;;
71963;SDS011;59834;52.124;5.422;2023-10-08T05:03:50;9.93;;;2.40;;
71963;SDS011;59834;52.124;5.422;2023-10-08T05:06:26;10.00;;;2.28;;
71963;SDS011;59834;52.124;5.422;2023-10-08T05:11:45;10.82;;;2.03;;
71963;SDS011;59834;52.124;5.422;2023-10-08T05:14:32;18.02;;;2.80;;
71963;SDS011;59834;52.124;5.422;2023-10-08T05:16:59;13.43;;;2.30;;
71963;SDS011;59834;52.124;5.422;2023-10-08T05:19:29;12.52;;;2.17;;
71963;SDS011;59834;52.124;5.422;2023-10-08T05:22:17;13.65;;;2.65;;
71963;SDS011;59834;52.124;5.422;2023-10-08T05:24:45;7.20;;;2.13;;
71963;SDS011;59834;52.124;5.422;2023-10-08T05:27:34;17.27;;;3.00;;
71963;SDS011;59834;52.124;5.422;2023-10-08T05:30:18;10.97;;;2.87;;
71963;SDS011;59834;52.124;5.422;2023-10-08T05:32:58;11.90;;;2.38;;
71963;SDS011;59834;52.124;5.422;2023-10-08T05:35:44;8.98;;;1.90;;
71963;SDS011;59834;52.124;5.422;2023-10-08T05:38:14;7.20;;;1.63;;
71963;SDS011;59834;52.124;5.422;2023-10-08T05:40:59;7.47;;;2.08;;
71963;SDS011;59834;52.124;5.422;2023-10-08T05:43:36;4.65;;;1.05;;
71963;SDS011;59834;52.124;5.422;2023-10-08T05:46:04;11.00;;;1.05;;
71963;SDS011;59834;52.124;5.422;2023-10-08T05:48:54;5.72;;;0.77;;
71963;SDS011;59834;52.124;5.422;2023-10-08T05:51:35;7.03;;;0.63;;
71963;SDS011;59834;52.124;5.422;2023-10-08T05:54:15;7.75;;;0.47;;
71963;SDS011;59834;52.124;5.422;2023-10-08T05:56:59;10.87;;;1.00;;
71963;SDS011;59834;52.124;5.422;2023-10-08T06:02:40;8.20;;;1.70;;
71963;SDS011;59834;52.124;5.422;2023-10-08T06:05:11;4.35;;;0.50;;
71963;SDS011;59834;52.124;5.422;2023-10-08T06:07:40;3.55;;;0.85;;
71963;SDS011;59834;52.124;5.422;2023-10-08T06:10:20;8.13;;;0.60;;
71963;SDS011;59834;52.124;5.422;2023-10-08T06:12:53;9.18;;;1.15;;
71963;SDS011;59834;52.124;5.422;2023-10-08T06:15:28;2.25;;;0.30;;
71963;SDS011;59834;52.124;5.422;2023-10-08T06:18:14;2.80;;;0.28;;
71963;SDS011;59834;52.124;5.422;2023-10-08T06:20:41;3.63;;;0.73;;
71963;SDS011;59834;52.124;5.422;2023-10-08T06:23:15;4.97;;;0.30;;
71963;SDS011;59834;52.124;5.422;2023-10-08T06:25:47;1.83;;;0.30;;
71963;SDS011;59834;52.124;5.422;2023-10-08T06:28:20;4.78;;;0.40;;
71963;SDS011;59834;52.124;5.422;2023-10-08T06:30:48;1.60;;;0.20;;
71963;SDS011;59834;52.124;5.422;2023-10-08T06:33:16;5.68;;;0.45;;
71963;SDS011;59834;52.124;5.422;2023-10-08T06:35:43;3.03;;;0.30;;
71963;SDS011;59834;52.124;5.422;2023-10-08T06:38:31;2.25;;;0.30;;
71963;SDS011;59834;52.124;5.422;2023-10-08T06:40:59;4.05;;;0.28;;
71963;SDS011;59834;52.124;5.422;2023-10-08T06:43:44;1.77;;;0.30;;
71963;SDS011;59834;52.124;5.422;2023-10-08T06:46:38;2.60;;;0.20;;
71963;SDS011;59834;52.124;5.422;2023-10-08T06:49:07;5.68;;;0.35;;
71963;SDS011;59834;52.124;5.422;2023-10-08T06:51:39;4.45;;;0.90;;
71963;SDS011;59834;52.124;5.422;2023-10-08T06:54:10;1.80;;;0.20;;
71963;SDS011;59834;52.124;5.422;2023-10-08T06:56:40;2.75;;;0.30;;
71963;SDS011;59834;52.124;5.422;2023-10-08T06:59:13;3.72;;;0.30;;
71963;SDS011;59834;52.124;5.422;2023-10-08T07:01:40;1.02;;;0.20;;
71963;SDS011;59834;52.124;5.422;2023-10-08T07:07:22;3.42;;;0.55;;
71963;SDS011;59834;52.124;5.422;2023-10-08T07:09:58;6.00;;;2.15;;
71963;SDS011;59834;52.124;5.422;2023-10-08T07:15:14;2.67;;;0.40;;
71963;SDS011;59834;52.124;5.422;2023-10-08T07:17:46;1.08;;;0.43;;
71963;SDS011;59834;52.124;5.422;2023-10-08T07:20:19;1.75;;;0.50;;
71963;SDS011;59834;52.124;5.422;2023-10-08T07:22:49;3.30;;;0.40;;
71963;SDS011;59834;52.124;5.422;2023-10-08T07:25:21;4.28;;;0.52;;
71963;SDS011;59834;52.124;5.422;2023-10-08T07:27:48;3.92;;;0.68;;
71963;SDS011;59834;52.124;5.422;2023-10-08T07:30:15;2.30;;;0.60;;
71963;SDS011;59834;52.124;5.422;2023-10-08T07:32:54;4.90;;;0.50;;
71963;SDS011;59834;52.124;5.422;2023-10-08T07:35:21;1.45;;;0.50;;
71963;SDS011;59834;52.124;5.422;2023-10-08T07:37:53;1.80;;;0.60;;
71963;SDS011;59834;52.124;5.422;2023-10-08T07:40:20;1.80;;;0.70;;
71963;SDS011;59834;52.124;5.422;2023-10-08T07:42:55;1.63;;;0.60;;
71963;SDS011;59834;52.124;5.422;2023-10-08T07:45:22;1.88;;;0.60;;
71963;SDS011;59834;52.124;5.422;2023-10-08T07:47:49;3.13;;;1.30;;
71963;SDS011;59834;52.124;5.422;2023-10-08T07:50:16;1.70;;;0.65;;
71963;SDS011;59834;52.124;5.422;2023-10-08T07:52:43;1.80;;;0.80;;
71963;SDS011;59834;52.124;5.422;2023-10-08T07:55:11;2.67;;;0.55;;
71963;SDS011;59834;52.124;5.422;2023-10-08T07:57:45;2.58;;;1.02;;
71963;SDS011;59834;52.124;5.422;2023-10-08T08:00:11;1.73;;;0.55;;
71963;SDS011;59834;52.124;5.422;2023-10-08T08:02:50;1.77;;;0.90;;
71963;SDS011;59834;52.124;5.422;2023-10-08T08:05:19;2.13;;;0.90;;
71963;SDS011;59834;52.124;5.422;2023-10-08T08:07:46;4.25;;;0.90;;
71963;SDS011;59834;52.124;5.422;2023-10-08T08:10:16;3.90;;;0.90;;
71963;SDS011;59834;52.124;5.422;2023-10-08T08:12:44;3.22;;;1.10;;
71963;SDS011;59834;52.124;5.422;2023-10-08T08:15:12;2.90;;;1.33;;
71963;SDS011;59834;52.124;5.422;2023-10-08T08:17:42;2.47;;;0.73;;
71963;SDS011;59834;52.124;5.422;2023-10-08T08:20:10;4.95;;;0.70;;
71963;SDS011;59834;52.124;5.422;2023-10-08T08:22:45;2.92;;;1.00;;
71963;SDS011;59834;52.124;5.422;2023-10-08T08:25:21;1.98;;;0.75;;
71963;SDS011;59834;52.124;5.422;2023-10-08T08:28:01;1.63;;;0.70;;
71963;SDS011;59834;52.124;5.422;2023-10-08T08:30:27;4.30;;;0.90;;
71963;SDS011;59834;52.124;5.422;2023-10-08T08:32:54;2.60;;;0.70;;
71963;SDS011;59834;52.124;5.422;2023-10-08T08:35:23;2.55;;;0.75;;
71963;SDS011;59834;52.124;5.422;2023-10-08T08:37:51;2.75;;;1.10;;
71963;SDS011;59834;52.124;5.422;2023-10-08T08:40:18;1.33;;;0.50;;
71963;SDS011;59834;52.124;5.422;2023-10-08T08:42:47;2.33;;;0.90;;
71963;SDS011;59834;52.124;5.422;2023-10-08T08:45:22;1.88;;;0.45;;
71963;SDS011;59834;52.124;5.422;2023-10-08T08:47:53;1.98;;;0.60;;
71963;SDS011;59834;52.124;5.422;2023-10-08T08:50:20;1.52;;;0.68;;
71963;SDS011;59834;52.124;5.422;2023-10-08T08:52:49;2.33;;;0.57;;
71963;SDS011;59834;52.124;5.422;2023-10-08T08:55:21;3.53;;;0.63;;
71963;SDS011;59834;52.124;5.422;2023-10-08T08:57:48;2.05;;;0.60;;
71963;SDS011;59834;52.124;5.422;2023-10-08T09:00:17;4.15;;;1.00;;
71963;SDS011;59834;52.124;5.422;2023-10-08T09:02:45;1.83;;;0.40;;
71963;SDS011;59834;52.124;5.422;2023-10-08T09:05:15;3.03;;;0.43;;
71963;SDS011;59834;52.124;5.422;2023-10-08T09:08:02;2.03;;;0.73;;
71963;SDS011;59834;52.124;5.422;2023-10-08T09:10:34;2.40;;;0.77;;
71963;SDS011;59834;52.124;5.422;2023-10-08T09:13:21;3.13;;;0.55;;
71963;SDS011;59834;52.124;5.422;2023-10-08T09:15:50;1.52;;;0.50;;
71963;SDS011;59834;52.124;5.422;2023-10-08T09:18:22;1.42;;;0.55;;
71963;SDS011;59834;52.124;5.422;2023-10-08T09:20:48;3.30;;;1.03;;
71963;SDS011;59834;52.124;5.422;2023-10-08T09:23:16;1.92;;;0.52;;
71963;SDS011;59834;52.124;5.422;2023-10-08T09:25:48;3.47;;;0.52;;
71963;SDS011;59834;52.124;5.422;2023-10-08T09:28:25;2.80;;;0.73;;
71963;SDS011;59834;52.124;5.422;2023-10-08T09:30:52;2.95;;;1.20;;
71963;SDS011;59834;52.124;5.422;2023-10-08T09:33:21;2.20;;;1.00;;
71963;SDS011;59834;52.124;5.422;2023-10-08T09:35:48;1.98;;;0.88;;
71963;SDS011;59834;52.124;5.422;2023-10-08T09:38:18;3.15;;;0.77;;
71963;SDS011;59834;52.124;5.422;2023-10-08T09:40:50;1.77;;;0.65;;
71963;SDS011;59834;52.124;5.422;2023-10-08T09:43:19;4.68;;;0.80;;
71963;SDS011;59834;52.124;5.422;2023-10-08T09:46:12;1.93;;;0.77;;
71963;SDS011;59834;52.124;5.422;2023-10-08T09:48:41;2.92;;;0.70;;
71963;SDS011;59834;52.124;5.422;2023-10-08T09:51:20;3.78;;;0.80;;
71963;SDS011;59834;52.124;5.422;2023-10-08T09:56:20;1.30;;;0.70;;
71963;SDS011;59834;52.124;5.422;2023-10-08T09:58:48;3.50;;;1.43;;
71963;SDS011;59834;52.124;5.422;2023-10-08T10:01:22;1.88;;;0.80;;
71963;SDS011;59834;52.124;5.422;2023-10-08T10:03:49;2.10;;;0.95;;
71963;SDS011;59834;52.124;5.422;2023-10-08T10:06:19;2.80;;;1.30;;
71963;SDS011;59834;52.124;5.422;2023-10-08T10:08:47;2.70;;;1.05;;
71963;SDS011;59834;52.124;5.422;2023-10-08T10:11:15;2.60;;;1.20;;
71963;SDS011;59834;52.124;5.422;2023-10-08T10:13:50;4.05;;;1.20;;
71963;SDS011;59834;52.124;5.422;2023-10-08T10:16:26;5.57;;;1.40;;
71963;SDS011;59834;52.124;5.422;2023-10-08T10:18:56;2.20;;;1.08;;
71963;SDS011;59834;52.124;5.422;2023-10-08T10:21:24;2.13;;;1.20;;
71963;SDS011;59834;52.124;5.422;2023-10-08T10:23:53;3.47;;;1.53;;
71963;SDS011;59834;52.124;5.422;2023-10-08T10:26:25;3.22;;;1.35;;
71963;SDS011;59834;52.124;5.422;2023-10-08T10:31:43;3.28;;;1.50;;
71963;SDS011;59834;52.124;5.422;2023-10-08T10:34:21;4.10;;;1.73;;
71963;SDS011;59834;52.124;5.422;2023-10-08T10:36:54;8.30;;;1.77;;
71963;SDS011;59834;52.124;5.422;2023-10-08T10:39:23;3.35;;;2.03;;
71963;SDS011;59834;52.124;5.422;2023-10-08T10:41:59;2.10;;;1.65;;
71963;SDS011;59834;52.124;5.422;2023-10-08T10:44:28;2.63;;;1.88;;
71963;SDS011;59834;52.124;5.422;2023-10-08T10:46:57;2.35;;;1.80;;
71963;SDS011;59834;52.124;5.422;2023-10-08T10:49:49;4.30;;;1.83;;
71963;SDS011;59834;52.124;5.422;2023-10-08T10:52:26;3.00;;;1.92;;
71963;SDS011;59834;52.124;5.422;2023-10-08T10:55:18;12.02;;;8.40;;
71963;SDS011;59834;52.124;5.422;2023-10-08T10:57:54;8.88;;;2.50;;
71963;SDS011;59834;52.124;5.422;2023-10-08T11:00:23;5.97;;;2.90;;
71963;SDS011;59834;52.124;5.422;2023-10-08T11:03:00;5.47;;;4.20;;
71963;SDS011;59834;52.124;5.422;2023-10-08T11:05:54;4.75;;;3.15;;
71963;SDS011;59834;52.124;5.422;2023-10-08T11:08:32;4.88;;;3.90;;
71963;SDS011;59834;52.124;5.422;2023-10-08T11:11:02;7.72;;;4.95;;
71963;SDS011;59834;52.124;5.422;2023-10-08T11:13:35;8.52;;;7.82;;
71963;SDS011;59834;52.124;5.422;2023-10-08T11:16:06;6.07;;;2.80;;
71963;SDS011;59834;52.124;5.422;2023-10-08T11:18:41;3.58;;;2.58;;
71963;SDS011;59834;52.124;5.422;2023-10-08T11:21:10;3.22;;;2.10;;
71963;SDS011;59834;52.124;5.422;2023-10-08T11:23:43;4.57;;;2.40;;
71963;SDS011;59834;52.124;5.422;2023-10-08T11:26:19;3.38;;;2.53;;
71963;SDS011;59834;52.124;5.422;2023-10-08T11:28:58;3.30;;;2.17;;
71963;SDS011;59834;52.124;5.422;2023-10-08T11:31:31;3.40;;;2.22;;
71963;SDS011;59834;52.124;5.422;2023-10-08T11:34:03;2.67;;;1.73;;
71963;SDS011;59834;52.124;5.422;2023-10-08T11:36:39;6.20;;;2.22;;
71963;SDS011;59834;52.124;5.422;2023-10-08T11:39:16;3.97;;;2.00;;
71963;SDS011;59834;52.124;5.422;2023-10-08T11:42:02;8.10;;;2.47;;
71963;SDS011;59834;52.124;5.422;2023-10-08T11:44:31;4.88;;;2.65;;
71963;SDS011;59834;52.124;5.422;2023-10-08T11:47:03;5.30;;;2.25;;
71963;SDS011;59834;52.124;5.422;2023-10-08T11:49:47;3.45;;;1.02;;
71963;SDS011;59834;52.124;5.422;2023-10-08T11:52:20;4.43;;;1.23;;
71963;SDS011;59834;52.124;5.422;2023-10-08T11:54:48;3.90;;;1.93;;
71963;SDS011;59834;52.124;5.422;2023-10-08T11:57:18;3.00;;;1.75;;
71963;SDS011;59834;52.124;5.422;2023-10-08T11:59:49;6.45;;;1.80;;
71963;SDS011;59834;52.124;5.422;2023-10-08T12:02:19;2.75;;;1.20;;
71963;SDS011;59834;52.124;5.422;2023-10-08T12:04:47;6.32;;;1.38;;
71963;SDS011;59834;52.124;5.422;2023-10-08T12:07:15;2.93;;;0.90;;
71963;SDS011;59834;52.124;5.422;2023-10-08T12:09:44;5.03;;;1.27;;
71963;SDS011;59834;52.124;5.422;2023-10-08T12:12:15;3.85;;;1.17;;
71963;SDS011;59834;52.124;5.422;2023-10-08T12:14:42;2.60;;;0.95;;
71963;SDS011;59834;52.124;5.422;2023-10-08T12:17:13;7.32;;;1.10;;
71963;SDS011;59834;52.124;5.422;2023-10-08T12:19:43;2.33;;;0.93;;
71963;SDS011;59834;52.124;5.422;2023-10-08T12:22:11;2.53;;;0.90;;
71963;SDS011;59834;52.124;5.422;2023-10-08T12:24:44;4.50;;;0.90;;
71963;SDS011;59834;52.124;5.422;2023-10-08T12:27:11;3.95;;;0.90;;
71963;SDS011;59834;52.124;5.422;2023-10-08T12:29:39;3.33;;;1.27;;
71963;SDS011;59834;52.124;5.422;2023-10-08T12:32:06;2.43;;;0.97;;
71963;SDS011;59834;52.124;5.422;2023-10-08T12:34:43;4.20;;;1.00;;
71963;SDS011;59834;52.124;5.422;2023-10-08T12:37:10;4.75;;;1.15;;
71963;SDS011;59834;52.124;5.422;2023-10-08T12:39:41;2.47;;;1.30;;
71963;SDS011;59834;52.124;5.422;2023-10-08T12:42:19;1.98;;;0.70;;
71963;SDS011;59834;52.124;5.422;2023-10-08T12:44:47;3.40;;;1.00;;
71963;SDS011;59834;52.124;5.422;2023-10-08T12:47:14;4.38;;;0.90;;
71963;SDS011;59834;52.124;5.422;2023-10-08T12:49:41;3.10;;;1.35;;
71963;SDS011;59834;52.124;5.422;2023-10-08T12:52:11;2.20;;;0.60;;
71963;SDS011;59834;52.124;5.422;2023-10-08T12:54:39;4.03;;;0.90;;
71963;SDS011;59834;52.124;5.422;2023-10-08T12:57:11;2.40;;;0.60;;
71963;SDS011;59834;52.124;5.422;2023-10-08T12:59:42;1.88;;;0.80;;
71963;SDS011;59834;52.124;5.422;2023-10-08T13:02:15;7.35;;;0.90;;
71963;SDS011;59834;52.124;5.422;2023-10-08T13:04:44;3.30;;;0.57;;
71963;SDS011;59834;52.124;5.422;2023-10-08T13:07:12;3.67;;;0.73;;
71963;SDS011;59834;52.124;5.422;2023-10-08T13:09:40;1.37;;;0.53;;
71963;SDS011;59834;52.124;5.422;2023-10-08T13:12:09;2.40;;;0.32;;
71963;SDS011;59834;52.124;5.422;2023-10-08T13:14:37;3.47;;;0.30;;
71963;SDS011;59834;52.124;5.422;2023-10-08T13:17:05;3.75;;;0.40;;
71963;SDS011;59834;52.124;5.422;2023-10-08T13:19:37;1.15;;;0.30;;
71963;SDS011;59834;52.124;5.422;2023-10-08T13:22:03;1.57;;;0.40;;
71963;SDS011;59834;52.124;5.422;2023-10-08T13:24:33;2.13;;;0.50;;
71963;SDS011;59834;52.124;5.422;2023-10-08T13:27:02;4.38;;;0.82;;
71963;SDS011;59834;52.124;5.422;2023-10-08T13:29:31;2.42;;;0.55;;
71963;SDS011;59834;52.124;5.422;2023-10-08T13:32:00;2.95;;;0.40;;
71963;SDS011;59834;52.124;5.422;2023-10-08T13:34:29;1.83;;;0.70;;
71963;SDS011;59834;52.124;5.422;2023-10-08T13:37:02;3.38;;;0.80;;
71963;SDS011;59834;52.124;5.422;2023-10-08T13:39:29;8.50;;;1.25;;
71963;SDS011;59834;52.124;5.422;2023-10-08T13:41:56;6.55;;;0.95;;
71963;SDS011;59834;52.124;5.422;2023-10-08T13:44:27;6.35;;;1.05;;
71963;SDS011;59834;52.124;5.422;2023-10-08T13:46:58;3.30;;;0.70;;
71963;SDS011;59834;52.124;5.422;2023-10-08T13:49:26;4.47;;;0.60;;
71963;SDS011;59834;52.124;5.422;2023-10-08T13:51:53;4.00;;;0.93;;
71963;SDS011;59834;52.124;5.422;2023-10-08T13:54:23;3.05;;;1.33;;
71963;SDS011;59834;52.124;5.422;2023-10-08T13:56:56;4.22;;;0.60;;
71963;SDS011;59834;52.124;5.422;2023-10-08T13:59:25;2.00;;;0.50;;
71963;SDS011;59834;52.124;5.422;2023-10-08T14:01:52;1.60;;;0.57;;
71963;SDS011;59834;52.124;5.422;2023-10-08T14:04:21;2.58;;;0.85;;
71963;SDS011;59834;52.124;5.422;2023-10-08T14:06:54;2.08;;;0.50;;
71963;SDS011;59834;52.124;5.422;2023-10-08T14:09:22;4.20;;;1.15;;
71963;SDS011;59834;52.124;5.422;2023-10-08T14:11:57;3.90;;;1.30;;
71963;SDS011;59834;52.124;5.422;2023-10-08T14:14:25;18.42;;;4.88;;
71963;SDS011;59834;52.124;5.422;2023-10-08T14:16:57;6.47;;;1.77;;
71963;SDS011;59834;52.124;5.422;2023-10-08T14:19:29;3.75;;;1.15;;
71963;SDS011;59834;52.124;5.422;2023-10-08T14:22:06;6.00;;;2.55;;
71963;SDS011;59834;52.124;5.422;2023-10-08T14:24:37;3.17;;;1.30;;
71963;SDS011;59834;52.124;5.422;2023-10-08T14:27:05;6.10;;;2.30;;
71963;SDS011;59834;52.124;5.422;2023-10-08T14:29:42;4.47;;;1.42;;
71963;SDS011;59834;52.124;5.422;2023-10-08T14:32:13;3.35;;;0.98;;
71963;SDS011;59834;52.124;5.422;2023-10-08T14:34:42;2.95;;;0.68;;
71963;SDS011;59834;52.124;5.422;2023-10-08T14:37:21;2.00;;;0.70;;
71963;SDS011;59834;52.124;5.422;2023-10-08T14:40:07;4.07;;;0.52;;
71963;SDS011;59834;52.124;5.422;2023-10-08T14:42:53;3.28;;;0.80;;
71963;SDS011;59834;52.124;5.422;2023-10-08T14:45:25;4.95;;;0.60;;
71963;SDS011;59834;52.124;5.422;2023-10-08T14:47:55;1.85;;;0.55;;
71963;SDS011;59834;52.124;5.422;2023-10-08T14:50:25;1.77;;;0.63;;
71963;SDS011;59834;52.124;5.422;2023-10-08T14:52:57;3.13;;;1.27;;
71963;SDS011;59834;52.124;5.422;2023-10-08T14:55:36;2.42;;;0.80;;
71963;SDS011;59834;52.124;5.422;2023-10-08T14:58:07;4.47;;;0.70;;
71963;SDS011;59834;52.124;5.422;2023-10-08T15:00:35;1.67;;;0.75;;
71963;SDS011;59834;52.124;5.422;2023-10-08T15:03:02;3.37;;;1.03;;
71963;SDS011;59834;52.124;5.422;2023-10-08T15:05:29;5.25;;;1.30;;
71963;SDS011;59834;52.124;5.422;2023-10-08T15:08:00;6.60;;;1.02;;
71963;SDS011;59834;52.124;5.422;2023-10-08T15:10:27;2.92;;;0.90;;
71963;SDS011;59834;52.124;5.422;2023-10-08T15:12:55;2.08;;;1.05;;
71963;SDS011;59834;52.124;5.422;2023-10-08T15:15:23;2.43;;;1.00;;
71963;SDS011;59834;52.124;5.422;2023-10-08T15:17:51;2.95;;;0.82;;
71963;SDS011;59834;52.124;5.422;2023-10-08T15:20:19;3.63;;;1.20;;
71963;SDS011;59834;52.124;5.422;2023-10-08T15:22:47;4.93;;;1.10;;
71963;SDS011;59834;52.124;5.422;2023-10-08T15:25:15;2.33;;;1.33;;
71963;SDS011;59834;52.124;5.422;2023-10-08T15:27:44;3.40;;;0.90;;
71963;SDS011;59834;52.124;5.422;2023-10-08T15:30:14;2.90;;;0.98;;